地図

経路データ

SID SEASON NUMBER BASIN SUBBASIN NAME ISO_TIME NATURE LAT LON WMO_WIND WMO_PRES WMO_AGENCY TRACK_TYPE DIST2LAND LANDFALL IFLAG USA_AGENCY USA_ATCF_ID USA_LAT USA_LON USA_RECORD USA_STATUS USA_WIND USA_PRES USA_SSHS USA_R34_NE USA_R34_SE USA_R34_SW USA_R34_NW USA_R50_NE USA_R50_SE USA_R50_SW USA_R50_NW USA_R64_NE USA_R64_SE USA_R64_SW USA_R64_NW USA_POCI USA_ROCI USA_RMW USA_EYE TOKYO_LAT TOKYO_LON TOKYO_GRADE TOKYO_WIND TOKYO_PRES TOKYO_R50_DIR TOKYO_R50_LONG TOKYO_R50_SHORT TOKYO_R30_DIR TOKYO_R30_LONG TOKYO_R30_SHORT TOKYO_LAND CMA_LAT CMA_LON CMA_CAT CMA_WIND CMA_PRES HKO_LAT HKO_LON HKO_CAT HKO_WIND HKO_PRES NEWDELHI_LAT NEWDELHI_LON NEWDELHI_GRADE NEWDELHI_WIND NEWDELHI_PRES NEWDELHI_CI NEWDELHI_DP NEWDELHI_POCI REUNION_LAT REUNION_LON REUNION_TYPE REUNION_WIND REUNION_PRES REUNION_TNUM REUNION_CI REUNION_RMW REUNION_R34_NE REUNION_R34_SE REUNION_R34_SW REUNION_R34_NW REUNION_R50_NE REUNION_R50_SE REUNION_R50_SW REUNION_R50_NW REUNION_R64_NE REUNION_R64_SE REUNION_R64_SW REUNION_R64_NW BOM_LAT BOM_LON BOM_TYPE BOM_WIND BOM_PRES BOM_TNUM BOM_CI BOM_RMW BOM_R34_NE BOM_R34_SE BOM_R34_SW BOM_R34_NW BOM_R50_NE BOM_R50_SE BOM_R50_SW BOM_R50_NW BOM_R64_NE BOM_R64_SE BOM_R64_SW BOM_R64_NW BOM_ROCI BOM_POCI BOM_EYE BOM_POS_METHOD BOM_PRES_METHOD NADI_LAT NADI_LON NADI_CAT NADI_WIND NADI_PRES WELLINGTON_LAT WELLINGTON_LON WELLINGTON_WIND WELLINGTON_PRES DS824_LAT DS824_LON DS824_STAGE DS824_WIND DS824_PRES TD9636_LAT TD9636_LON TD9636_STAGE TD9636_WIND TD9636_PRES TD9635_LAT TD9635_LON TD9635_WIND TD9635_PRES TD9635_ROCI NEUMANN_LAT NEUMANN_LON NEUMANN_CLASS NEUMANN_WIND NEUMANN_PRES MLC_LAT MLC_LON MLC_CLASS MLC_WIND MLC_PRES USA_GUST BOM_GUST BOM_GUST_PER REUNION_GUST REUNION_GUST_PER USA_SEAHGT USA_SEARAD_NE USA_SEARAD_SE USA_SEARAD_SW USA_SEARAD_NW STORM_SPEED STORM_DIR
1980249N28269 1980 73 NA GM DANIELLE 1980-09-04 18:00:00 TS 28.3000 -90.6000 25 1010 hurdat_atl main 89 89 O_____________ hurdat_atl AL111980 28.3000 -90.6000 TD 25 1010 -1 7 270
1980249N28269 1980 73 NA GM DANIELLE 1980-09-04 21:00:00 TS 28.2978 -90.9725 main 89 89 P_____________ AL111980 28.2978 -90.9725 TD 25 1010 -1 6 270
1980249N28269 1980 73 NA GM DANIELLE 1980-09-05 00:00:00 TS 28.3000 -91.3000 25 1010 hurdat_atl main 97 97 O_____________ hurdat_atl AL111980 28.3000 -91.3000 TD 25 1010 -1 5 272
1980249N28269 1980 73 NA GM DANIELLE 1980-09-05 03:00:00 TS 28.3198 -91.5577 main 111 106 P_____________ AL111980 28.3198 -91.5577 TD 25 1009 -1 5 283
1980249N28269 1980 73 NA GM DANIELLE 1980-09-05 06:00:00 TS 28.4000 -91.8000 25 1009 hurdat_atl main 112 104 O_____________ hurdat_atl AL111980 28.4000 -91.8000 TD 25 1009 -1 5 299
1980249N28269 1980 73 NA GM DANIELLE 1980-09-05 09:00:00 TS 28.5622 -92.0628 main 102 78 P_____________ AL111980 28.5622 -92.0628 TD 27 1008 -1 7 307
1980249N28269 1980 73 NA GM DANIELLE 1980-09-05 12:00:00 TS 28.8000 -92.4000 30 1008 hurdat_atl main 78 56 O_____________ hurdat_atl AL111980 28.8000 -92.4000 TD 30 1008 -1 9 310
1980249N28269 1980 73 NA GM DANIELLE 1980-09-05 15:00:00 TS 29.1296 -92.8318 main 59 44 P_____________ AL111980 29.1296 -92.8318 TD 40 1006 0 11 304
1980249N28269 1980 73 NA GM DANIELLE 1980-09-05 18:00:00 TS 29.4000 -93.4000 50 1004 hurdat_atl main 44 22 O_____________ hurdat_atl AL111980 29.4000 -93.4000 TS 50 1004 0 12 286
1980249N28269 1980 73 NA GM DANIELLE 1980-09-05 21:00:00 TS 29.4528 -94.1206 main 22 0 P_____________ AL111980 29.4528 -94.1206 TS 45 1004 0 13 270
1980249N28269 1980 73 NA GM DANIELLE 1980-09-06 00:00:00 TS 29.4000 -94.9000 40 1004 hurdat_atl main 9 0 O_____________ hurdat_atl AL111980 29.4000 -94.9000 TS 40 1004 0 13 266
1980249N28269 1980 73 NA NA DANIELLE 1980-09-06 03:00:00 TS 29.3652 -95.6600 main 0 0 P_____________ AL111980 29.3652 -95.6600 TS 37 1006 0 12 265
1980249N28269 1980 73 NA NA DANIELLE 1980-09-06 06:00:00 TS 29.3000 -96.3000 35 1008 hurdat_atl main 0 0 O_____________ hurdat_atl AL111980 29.3000 -96.3000 TS 35 1008 0 9 260
1980249N28269 1980 73 NA NA DANIELLE 1980-09-06 09:00:00 TS 29.1993 -96.6950 main 0 0 P_____________ AL111980 29.1993 -96.6950 TS 32 1008 -1 6 252
1980249N28269 1980 73 NA NA DANIELLE 1980-09-06 12:00:00 TS 29.1000 -97.0000 30 1008 hurdat_atl main 0 0 O_____________ hurdat_atl AL111980 29.1000 -97.0000 TD 30 1008 -1 6 255
1980249N28269 1980 73 NA NA DANIELLE 1980-09-06 15:00:00 TS 29.0351 -97.4150 main 0 0 P_____________ AL111980 29.0351 -97.4150 TD 27 1008 -1 7 262
1980249N28269 1980 73 NA NA DANIELLE 1980-09-06 18:00:00 TS 29.0000 -97.8000 25 1008 hurdat_atl main 0 0 O_____________ hurdat_atl AL111980 29.0000 -97.8000 TD 25 1008 -1 6 266
1980249N28269 1980 73 NA NA DANIELLE 1980-09-06 21:00:00 TS 28.9922 -98.0574 main 0 0 P_____________ AL111980 28.9922 -98.0574 TD 22 1009 -1 4 270
1980249N28269 1980 73 NA NA DANIELLE 1980-09-07 00:00:00 TS 29.0000 -98.3000 20 1010 hurdat_atl main 0 0 O_____________ hurdat_atl AL111980 29.0000 -98.3000 TD 20 1010 -1 5 271
1980249N28269 1980 73 NA NA DANIELLE 1980-09-07 03:00:00 TS 28.9998 -98.6125 main 0 0 P_____________ AL111980 28.9998 -98.6125 TD 20 1010 -1 6 270
1980249N28269 1980 73 NA NA DANIELLE 1980-09-07 06:00:00 TS 29.0000 -99.0000 20 1010 hurdat_atl main 0 0 O_____________ hurdat_atl AL111980 29.0000 -99.0000 TD 20 1010 -1 8 270
1980249N28269 1980 73 NA NA DANIELLE 1980-09-07 09:00:00 TS 29.0005 -99.4750 main 0 0 P_____________ AL111980 29.0005 -99.4750 TD 20 1010 -1 9 270
1980249N28269 1980 73 NA NA DANIELLE 1980-09-07 12:00:00 TS 29.0000 -100.000 20 1010 hurdat_atl main 0 O_____________ hurdat_atl AL111980 29.0000 -100.000 TD 20 1010 -1 9 270

IBTrACS Databaseについて

本データベースは、米国NOAAが公開する1842年以降の世界の熱帯低気圧のベストトラックデータアーカイブInternational Best Track Archive for Climate Stewardship (IBTrACS)を、ウェブで閲覧しやすい形式に変換したものです。

最終更新日:2021-12-08